createdAt,value
2023-03-16T00:21:11.188Z,39.50
2023-03-16T00:23:47.941Z,10.50
2023-03-16T01:04:13.798Z,42.00
2023-03-16T01:06:42.237Z,43.00
2023-03-16T01:09:15.085Z,46.00
2023-03-16T01:11:46.203Z,45.00
2023-03-16T01:40:18.940Z,45.00
2023-03-16T01:50:52.807Z,46.00
2023-03-16T02:24:41.972Z,42.00
2023-03-16T02:27:19.206Z,40.00
2023-03-16T02:40:42.524Z,42.00
2023-03-16T02:45:51.794Z,39.25
2023-03-16T02:48:23.283Z,37.00
2023-03-16T02:50:54.397Z,37.00
2023-03-16T02:53:25.658Z,33.75
2023-03-16T02:55:57.642Z,34.00
2023-03-16T03:12:37.971Z,33.75
2023-03-16T03:26:30.803Z,30.25
2023-03-16T03:29:21.877Z,33.00
2023-03-16T03:45:58.809Z,30.00
2023-03-16T03:51:53.392Z,30.00
2023-03-16T03:54:24.541Z,27.50
2023-03-16T03:57:08.216Z,30.25
2023-03-16T04:15:31.152Z,34.00
2023-03-16T04:21:43.889Z,33.00
2023-03-16T04:24:16.419Z,27.75
2023-03-16T04:26:51.165Z,33.00
2023-03-16T04:29:27.459Z,33.00
2023-03-16T04:32:06.272Z,29.50
2023-03-16T04:34:40.707Z,31.25
2023-03-16T04:37:31.055Z,33.00
2023-03-16T04:49:20.279Z,30.50
2023-03-16T04:54:53.564Z,31.50
2023-03-16T04:57:21.482Z,30.50
2023-03-16T04:59:53.665Z,32.50
2023-03-16T05:02:21.599Z,25.00
2023-03-16T05:05:03.509Z,32.50
2023-03-16T05:10:24.933Z,33.50
2023-03-16T05:19:10.083Z,39.25
2023-03-16T05:21:42.980Z,38.50
2023-03-16T05:24:19.774Z,42.00
2023-03-16T05:26:46.375Z,42.00
2023-03-16T05:29:14.499Z,36.25
2023-03-16T05:31:41.738Z,41.50
2023-03-16T05:34:11.042Z,35.50
2023-03-16T05:36:38.947Z,36.75
2023-03-16T05:39:10.530Z,35.00
2023-03-16T05:41:43.164Z,33.50
2023-03-16T05:44:09.983Z,34.00
2023-03-16T05:46:37.156Z,34.00
2023-03-16T05:49:04.489Z,36.50
2023-03-16T05:51:31.039Z,37.00
2023-03-16T05:53:58.747Z,36.75
2023-03-16T05:56:25.974Z,37.50
2023-03-16T05:58:53.334Z,34.00
2023-03-16T06:01:20.527Z,36.75
2023-03-16T06:03:50.420Z,29.25
2023-03-16T06:06:17.143Z,34.25
2023-03-16T06:08:43.761Z,36.50
2023-03-16T06:11:11.506Z,35.75
2023-03-16T06:13:38.672Z,37.50
2023-03-16T06:16:06.487Z,37.25
2023-03-16T06:18:33.539Z,34.75
2023-03-16T06:21:00.049Z,33.75
2023-03-16T06:23:26.796Z,37.50
2023-03-16T06:25:55.225Z,15.25
2023-03-16T06:28:22.572Z,39.25
2023-03-16T06:30:48.919Z,41.00
2023-03-16T06:33:15.580Z,42.25
2023-03-16T06:35:42.100Z,38.25
2023-03-16T06:38:08.610Z,32.75
2023-03-16T06:40:35.756Z,38.25
2023-03-16T06:43:02.213Z,37.50
2023-03-16T06:45:28.952Z,35.00
2023-03-16T06:48:07.665Z,34.25
2023-03-16T06:50:38.632Z,37.00
2023-03-16T06:53:14.477Z,38.00
2023-03-16T06:55:45.959Z,35.00
2023-03-16T06:58:20.577Z,37.25
2023-03-16T07:00:55.328Z,36.75
2023-03-16T07:03:37.289Z,33.00
2023-03-16T07:06:09.295Z,37.50
2023-03-16T07:14:44.792Z,37.00
2023-03-16T07:17:18.791Z,33.75
2023-03-16T07:19:50.943Z,25.00
2023-03-16T07:22:18.330Z,32.00
2023-03-16T07:24:47.517Z,33.25
2023-03-16T07:27:13.910Z,32.50
2023-03-16T07:29:40.724Z,35.00
2023-03-16T07:32:09.395Z,33.75
2023-03-16T07:34:39.074Z,33.00
2023-03-16T07:37:12.507Z,34.75
2023-03-16T07:39:42.099Z,21.50
2023-03-16T07:53:06.735Z,21.25
2023-03-16T08:05:01.304Z,28.25
2023-03-16T08:07:47.088Z,29.00
2023-03-16T08:10:44.720Z,27.25
2023-03-16T08:13:56.802Z,25.75
2023-03-16T08:16:42.911Z,26.00
2023-03-16T08:19:47.625Z,28.75
2023-03-16T08:22:25.248Z,31.00
2023-03-16T08:33:23.536Z,26.00
2023-03-16T09:28:58.631Z,16.75
2023-03-16T09:31:28.832Z,17.75
2023-03-16T09:34:03.420Z,8.50
2023-03-16T09:36:30.831Z,14.25
2023-03-16T09:38:57.354Z,17.25
2023-03-16T09:41:48.856Z,15.25
2023-03-16T09:44:22.666Z,14.25
2023-03-16T09:46:50.777Z,11.00
2023-03-16T09:49:21.536Z,10.50
2023-03-16T09:51:52.654Z,10.50
2023-03-16T09:54:29.517Z,12.75
2023-03-16T09:56:57.658Z,10.00
2023-03-16T09:59:24.954Z,11.25
2023-03-16T10:02:23.847Z,15.00
2023-03-16T10:04:53.344Z,6.25
2023-03-16T10:07:25.980Z,9.00
2023-03-16T10:10:11.132Z,10.00
2023-03-16T10:12:41.507Z,11.75
2023-03-16T10:15:13.927Z,7.00
2023-03-16T10:17:43.376Z,12.75
2023-03-16T10:20:17.688Z,6.50
2023-03-16T10:22:46.227Z,22.75
2023-03-16T10:25:15.667Z,22.00
2023-03-16T10:27:43.604Z,8.75
2023-03-16T10:30:19.831Z,8.75
2023-03-16T10:32:46.484Z,9.25
2023-03-16T10:35:27.814Z,6.75
2023-03-16T10:37:54.403Z,9.75
2023-03-16T10:40:20.897Z,14.75
2023-03-16T10:42:47.797Z,10.00
2023-03-16T10:45:23.375Z,6.25
2023-03-16T10:47:49.784Z,8.00
2023-03-16T11:22:57.692Z,7.00
2023-03-16T11:25:28.782Z,9.00
2023-03-16T11:27:55.358Z,4.00
2023-03-16T11:30:35.366Z,4.25
2023-03-16T11:33:02.033Z,7.50
2023-03-16T11:35:29.272Z,3.25
2023-03-16T11:38:36.282Z,3.00
2023-03-16T11:41:10.585Z,5.75
2023-03-16T11:43:55.161Z,5.00
2023-03-16T11:46:24.990Z,7.75
2023-03-16T11:48:51.530Z,3.00
2023-03-16T11:51:20.646Z,3.50
2023-03-16T11:53:47.058Z,2.00
2023-03-16T11:56:32.048Z,2.00
2023-03-16T11:59:11.233Z,5.00
2023-03-16T12:02:00.824Z,5.75
2023-03-16T12:04:28.218Z,3.75
2023-03-16T12:07:01.432Z,6.25
2023-03-16T12:09:29.169Z,5.50
2023-03-16T12:11:58.809Z,5.00
2023-03-16T12:14:44.210Z,5.00
2023-03-16T12:17:16.681Z,10.00
2023-03-16T12:19:52.177Z,5.00
2023-03-16T12:22:28.198Z,16.00
2023-03-16T12:24:54.762Z,2.75
2023-03-16T12:27:33.471Z,6.50
2023-03-16T12:30:01.943Z,7.50
2023-03-16T12:32:41.101Z,5.50
2023-03-16T12:35:27.722Z,9.00
2023-03-16T12:38:00.400Z,7.00
2023-03-16T12:40:33.894Z,7.75
2023-03-16T12:43:06.973Z,4.00
2023-03-16T12:45:37.851Z,7.00
2023-03-16T12:48:19.061Z,6.75
2023-03-16T12:50:50.379Z,4.25
2023-03-16T12:56:47.208Z,3.75
2023-03-16T12:59:18.477Z,1.00
2023-03-16T13:01:46.012Z,9.00
2023-03-16T13:04:16.182Z,2.50
2023-03-16T13:06:50.826Z,6.75
2023-03-16T13:09:24.173Z,7.00
2023-03-16T13:11:50.648Z,6.00
2023-03-16T13:14:30.851Z,7.50
2023-03-16T13:17:05.682Z,12.50
2023-03-16T13:19:37.873Z,9.75
2023-03-16T13:22:24.545Z,11.75
2023-03-16T13:24:56.126Z,14.75
2023-03-16T13:27:26.158Z,14.25
2023-03-16T13:29:55.105Z,7.75
2023-03-16T13:32:21.876Z,8.50
2023-03-16T13:34:49.921Z,10.00
2023-03-16T13:37:18.196Z,10.50
2023-03-16T13:39:53.445Z,12.25
2023-03-16T13:42:20.929Z,11.50
2023-03-16T13:44:47.992Z,9.00
2023-03-16T13:50:38.774Z,7.75
2023-03-16T13:53:10.905Z,6.25
2023-03-16T14:02:02.283Z,11.00
2023-03-16T14:16:36.406Z,14.00
2023-03-16T14:19:04.215Z,20.00
2023-03-16T14:21:32.444Z,20.50
2023-03-16T14:24:00.465Z,8.00
2023-03-16T14:26:27.111Z,10.25
2023-03-16T14:32:00.190Z,15.00
2023-03-16T14:37:12.208Z,8.25
2023-03-16T14:39:40.578Z,14.00
2023-03-16T14:42:14.545Z,9.50
2023-03-16T14:44:42.402Z,10.25
2023-03-16T14:47:18.247Z,13.75
2023-03-16T16:14:43.191Z,28.00
2023-03-16T16:17:15.891Z,27.75
2023-03-16T16:19:42.786Z,31.75
2023-03-16T16:22:11.772Z,36.25
2023-03-16T16:24:38.537Z,35.75
2023-03-16T16:27:06.778Z,33.25
2023-03-16T16:32:28.346Z,35.25
2023-03-16T16:35:04.218Z,83.33
2023-03-16T16:37:31.476Z,93.00
2023-03-16T16:40:00.273Z,124.25
2023-03-16T16:42:26.796Z,101.33
2023-03-16T16:44:53.661Z,64.75
2023-03-16T16:47:23.311Z,60.25
2023-03-16T16:49:51.295Z,71.00
2023-03-16T16:52:18.487Z,68.25
2023-03-16T16:54:45.169Z,26.50
2023-03-16T16:57:18.992Z,23.00
2023-03-16T16:59:47.732Z,14.00
2023-03-16T17:02:26.493Z,30.00
2023-03-16T17:04:53.363Z,11.67
2023-03-16T17:07:20.036Z,17.00
2023-03-16T17:09:46.920Z,25.50
2023-03-16T17:12:24.008Z,35.50
2023-03-16T17:14:50.804Z,32.50
2023-03-16T17:17:17.961Z,42.25
2023-03-16T17:19:47.042Z,39.75
2023-03-16T17:22:22.199Z,27.50
2023-03-16T17:24:49.978Z,13.67
2023-03-16T17:27:20.796Z,16.00
2023-03-16T17:29:47.724Z,28.50
2023-03-16T17:32:18.425Z,23.00
2023-03-16T17:34:45.698Z,37.25
2023-03-16T17:37:17.647Z,47.25
2023-03-16T17:39:44.349Z,37.50
2023-03-16T17:42:12.932Z,63.25
2023-03-16T17:44:41.425Z,29.25
2023-03-16T17:47:39.833Z,37.25
2023-03-16T17:52:50.682Z,32.25
2023-03-16T17:55:21.577Z,19.25
2023-03-16T17:57:50.123Z,28.00
2023-03-16T18:00:25.245Z,30.25
2023-03-16T18:02:56.146Z,32.00
2023-03-16T18:05:23.256Z,32.50
2023-03-16T18:07:50.462Z,34.75
2023-03-16T18:10:23.797Z,31.75
2023-03-16T18:12:55.218Z,33.25
2023-03-16T18:15:23.306Z,35.75
2023-03-16T18:17:51.290Z,31.25
2023-03-16T18:20:23.209Z,31.75
2023-03-16T18:22:50.585Z,37.00
2023-03-16T18:25:39.892Z,38.25
2023-03-16T18:28:08.087Z,39.00
2023-03-16T18:30:35.923Z,30.75
2023-03-16T18:33:05.768Z,37.75
2023-03-16T18:35:33.241Z,38.25
2023-03-16T18:38:00.194Z,39.00
2023-03-16T18:40:30.328Z,37.00
2023-03-16T18:43:07.189Z,38.00
2023-03-16T18:45:36.778Z,35.50
2023-03-16T18:48:04.216Z,37.25
2023-03-16T18:50:31.187Z,36.25
2023-03-16T18:52:58.516Z,33.75
2023-03-16T18:55:25.963Z,33.00
2023-03-16T18:57:56.715Z,33.25
2023-03-16T19:00:28.234Z,36.25
2023-03-16T19:03:03.677Z,38.50
2023-03-16T19:05:36.052Z,33.75
2023-03-16T19:08:04.717Z,41.00
2023-03-16T19:10:32.801Z,42.75
2023-03-16T19:12:59.824Z,49.00
2023-03-16T19:15:31.174Z,43.00
2023-03-16T19:17:59.499Z,39.25
2023-03-16T19:20:28.315Z,36.25
2023-03-16T19:23:17.007Z,33.50
2023-03-16T19:25:43.975Z,34.75
2023-03-16T19:31:39.336Z,33.00
2023-03-16T19:55:17.712Z,157.00
2023-03-16T23:39:56.134Z,90.25
2023-03-16T23:47:57.308Z,63.67
2023-03-16T23:50:40.042Z,72.33
2023-03-16T23:53:24.835Z,70.67
2023-03-16T23:56:05.004Z,67.00
